sensor_id;sensor_type;location;lat;lon;timestamp;P1;durP1;ratioP1;P2;durP2;ratioP2
75135;SDS011;63707;52.212;9.540;2022-12-07T00:00:38;72.53;;;28.10;;
75135;SDS011;63707;52.212;9.540;2022-12-07T00:03:05;71.18;;;26.67;;
75135;SDS011;63707;52.212;9.540;2022-12-07T00:05:31;72.40;;;26.83;;
75135;SDS011;63707;52.212;9.540;2022-12-07T00:07:56;62.55;;;23.58;;
75135;SDS011;63707;52.212;9.540;2022-12-07T00:10:22;76.47;;;28.02;;
75135;SDS011;63707;52.212;9.540;2022-12-07T00:12:47;63.67;;;24.73;;
75135;SDS011;63707;52.212;9.540;2022-12-07T00:15:13;71.30;;;25.85;;
75135;SDS011;63707;52.212;9.540;2022-12-07T00:17:38;58.90;;;25.42;;
75135;SDS011;63707;52.212;9.540;2022-12-07T00:20:06;53.65;;;23.80;;
75135;SDS011;63707;52.212;9.540;2022-12-07T00:22:32;59.10;;;25.02;;
75135;SDS011;63707;52.212;9.540;2022-12-07T00:24:58;53.50;;;23.00;;
75135;SDS011;63707;52.212;9.540;2022-12-07T00:27:23;52.40;;;22.92;;
75135;SDS011;63707;52.212;9.540;2022-12-07T00:29:49;46.63;;;22.13;;
75135;SDS011;63707;52.212;9.540;2022-12-07T00:32:14;53.08;;;21.88;;
75135;SDS011;63707;52.212;9.540;2022-12-07T00:34:40;48.95;;;21.40;;
75135;SDS011;63707;52.212;9.540;2022-12-07T00:37:07;48.60;;;22.85;;
75135;SDS011;63707;52.212;9.540;2022-12-07T00:39:32;51.30;;;23.10;;
75135;SDS011;63707;52.212;9.540;2022-12-07T00:41:58;45.10;;;21.30;;
75135;SDS011;63707;52.212;9.540;2022-12-07T00:44:23;40.63;;;18.45;;
75135;SDS011;63707;52.212;9.540;2022-12-07T00:46:49;44.13;;;21.60;;
75135;SDS011;63707;52.212;9.540;2022-12-07T00:49:14;44.00;;;20.08;;
75135;SDS011;63707;52.212;9.540;2022-12-07T00:51:40;46.15;;;22.23;;
75135;SDS011;63707;52.212;9.540;2022-12-07T00:54:07;45.28;;;20.38;;
75135;SDS011;63707;52.212;9.540;2022-12-07T00:56:32;44.47;;;19.73;;
75135;SDS011;63707;52.212;9.540;2022-12-07T00:58:59;47.88;;;21.73;;
75135;SDS011;63707;52.212;9.540;2022-12-07T01:01:27;44.17;;;21.50;;
75135;SDS011;63707;52.212;9.540;2022-12-07T01:03:54;46.72;;;21.05;;
75135;SDS011;63707;52.212;9.540;2022-12-07T01:06:21;47.60;;;21.83;;
75135;SDS011;63707;52.212;9.540;2022-12-07T01:08:48;46.67;;;21.90;;
75135;SDS011;63707;52.212;9.540;2022-12-07T01:11:15;47.20;;;22.05;;
75135;SDS011;63707;52.212;9.540;2022-12-07T01:13:42;48.58;;;23.00;;
75135;SDS011;63707;52.212;9.540;2022-12-07T01:16:09;40.05;;;19.35;;
75135;SDS011;63707;52.212;9.540;2022-12-07T01:18:36;45.08;;;20.83;;
75135;SDS011;63707;52.212;9.540;2022-12-07T01:21:03;45.05;;;20.70;;
75135;SDS011;63707;52.212;9.540;2022-12-07T01:23:30;49.67;;;24.42;;
75135;SDS011;63707;52.212;9.540;2022-12-07T01:25:57;45.53;;;22.08;;
75135;SDS011;63707;52.212;9.540;2022-12-07T01:28:25;46.97;;;22.77;;
75135;SDS011;63707;52.212;9.540;2022-12-07T01:30:55;49.45;;;23.35;;
75135;SDS011;63707;52.212;9.540;2022-12-07T01:33:22;48.30;;;21.90;;
75135;SDS011;63707;52.212;9.540;2022-12-07T01:35:47;50.47;;;22.63;;
75135;SDS011;63707;52.212;9.540;2022-12-07T01:38:13;48.55;;;23.48;;
75135;SDS011;63707;52.212;9.540;2022-12-07T01:40:38;50.30;;;22.45;;
75135;SDS011;63707;52.212;9.540;2022-12-07T01:43:04;47.70;;;22.40;;
75135;SDS011;63707;52.212;9.540;2022-12-07T01:45:40;44.63;;;21.08;;
75135;SDS011;63707;52.212;9.540;2022-12-07T01:48:06;49.22;;;22.52;;
75135;SDS011;63707;52.212;9.540;2022-12-07T01:50:34;48.30;;;21.48;;
75135;SDS011;63707;52.212;9.540;2022-12-07T01:53:01;48.90;;;22.15;;
75135;SDS011;63707;52.212;9.540;2022-12-07T01:55:29;45.80;;;22.00;;
75135;SDS011;63707;52.212;9.540;2022-12-07T01:57:55;48.40;;;22.48;;
75135;SDS011;63707;52.212;9.540;2022-12-07T02:00:22;49.72;;;21.98;;
75135;SDS011;63707;52.212;9.540;2022-12-07T02:02:51;46.95;;;22.48;;
75135;SDS011;63707;52.212;9.540;2022-12-07T02:05:19;45.33;;;21.42;;
75135;SDS011;63707;52.212;9.540;2022-12-07T02:07:45;46.03;;;20.05;;
75135;SDS011;63707;52.212;9.540;2022-12-07T02:10:13;43.53;;;20.67;;
75135;SDS011;63707;52.212;9.540;2022-12-07T02:12:40;46.80;;;20.65;;
75135;SDS011;63707;52.212;9.540;2022-12-07T02:15:07;44.30;;;20.30;;
75135;SDS011;63707;52.212;9.540;2022-12-07T02:17:35;43.15;;;19.58;;
75135;SDS011;63707;52.212;9.540;2022-12-07T02:25:55;36.72;;;17.25;;
75135;SDS011;63707;52.212;9.540;2022-12-07T02:28:35;38.20;;;17.00;;
75135;SDS011;63707;52.212;9.540;2022-12-07T02:31:05;34.53;;;17.13;;
75135;SDS011;63707;52.212;9.540;2022-12-07T02:33:36;38.63;;;16.52;;
75135;SDS011;63707;52.212;9.540;2022-12-07T02:36:04;34.92;;;16.67;;
75135;SDS011;63707;52.212;9.540;2022-12-07T02:38:37;32.70;;;15.77;;
75135;SDS011;63707;52.212;9.540;2022-12-07T02:41:07;32.00;;;15.32;;
75135;SDS011;63707;52.212;9.540;2022-12-07T02:43:38;29.90;;;14.90;;
75135;SDS011;63707;52.212;9.540;2022-12-07T02:46:09;31.17;;;14.90;;
75135;SDS011;63707;52.212;9.540;2022-12-07T02:48:38;29.85;;;14.85;;
75135;SDS011;63707;52.212;9.540;2022-12-07T02:51:06;30.13;;;13.70;;
75135;SDS011;63707;52.212;9.540;2022-12-07T02:53:32;33.58;;;13.82;;
75135;SDS011;63707;52.212;9.540;2022-12-07T02:55:59;28.85;;;15.23;;
75135;SDS011;63707;52.212;9.540;2022-12-07T02:58:32;37.17;;;15.85;;
75135;SDS011;63707;52.212;9.540;2022-12-07T03:01:11;29.25;;;13.73;;
75135;SDS011;63707;52.212;9.540;2022-12-07T03:03:47;28.13;;;13.30;;
75135;SDS011;63707;52.212;9.540;2022-12-07T03:06:20;29.45;;;13.43;;
75135;SDS011;63707;52.212;9.540;2022-12-07T03:08:53;25.23;;;12.93;;
75135;SDS011;63707;52.212;9.540;2022-12-07T03:11:31;34.15;;;13.07;;
75135;SDS011;63707;52.212;9.540;2022-12-07T03:14:06;30.15;;;13.07;;
75135;SDS011;63707;52.212;9.540;2022-12-07T03:16:40;26.33;;;12.40;;
75135;SDS011;63707;52.212;9.540;2022-12-07T03:19:13;27.48;;;11.50;;
75135;SDS011;63707;52.212;9.540;2022-12-07T03:21:43;28.27;;;12.52;;
75135;SDS011;63707;52.212;9.540;2022-12-07T03:24:12;25.23;;;12.07;;
75135;SDS011;63707;52.212;9.540;2022-12-07T03:26:41;31.55;;;11.70;;
75135;SDS011;63707;52.212;9.540;2022-12-07T03:29:10;21.33;;;9.60;;
75135;SDS011;63707;52.212;9.540;2022-12-07T03:31:41;24.02;;;10.05;;
75135;SDS011;63707;52.212;9.540;2022-12-07T03:34:12;22.45;;;10.55;;
75135;SDS011;63707;52.212;9.540;2022-12-07T03:36:43;23.33;;;10.65;;
75135;SDS011;63707;52.212;9.540;2022-12-07T03:39:17;23.00;;;10.55;;
75135;SDS011;63707;52.212;9.540;2022-12-07T03:44:15;23.60;;;9.35;;
75135;SDS011;63707;52.212;9.540;2022-12-07T03:46:44;21.38;;;9.23;;
75135;SDS011;63707;52.212;9.540;2022-12-07T03:49:13;24.10;;;9.68;;
75135;SDS011;63707;52.212;9.540;2022-12-07T03:51:49;21.33;;;8.02;;
75135;SDS011;63707;52.212;9.540;2022-12-07T03:54:21;20.05;;;8.20;;
75135;SDS011;63707;52.212;9.540;2022-12-07T03:56:50;22.60;;;8.55;;
75135;SDS011;63707;52.212;9.540;2022-12-07T03:59:17;33.33;;;9.48;;
75135;SDS011;63707;52.212;9.540;2022-12-07T04:01:45;23.02;;;9.52;;
75135;SDS011;63707;52.212;9.540;2022-12-07T04:04:16;25.38;;;8.88;;
75135;SDS011;63707;52.212;9.540;2022-12-07T04:06:42;26.77;;;9.77;;
75135;SDS011;63707;52.212;9.540;2022-12-07T04:09:07;28.90;;;9.65;;
75135;SDS011;63707;52.212;9.540;2022-12-07T04:11:33;22.83;;;9.60;;
75135;SDS011;63707;52.212;9.540;2022-12-07T04:13:58;23.88;;;9.32;;
75135;SDS011;63707;52.212;9.540;2022-12-07T04:16:42;23.35;;;9.38;;
75135;SDS011;63707;52.212;9.540;2022-12-07T04:19:09;25.20;;;9.90;;
75135;SDS011;63707;52.212;9.540;2022-12-07T04:21:35;23.33;;;10.57;;
75135;SDS011;63707;52.212;9.540;2022-12-07T04:24:01;28.05;;;10.70;;
75135;SDS011;63707;52.212;9.540;2022-12-07T04:26:26;26.50;;;10.10;;
75135;SDS011;63707;52.212;9.540;2022-12-07T04:28:52;33.30;;;12.05;;
75135;SDS011;63707;52.212;9.540;2022-12-07T04:31:17;27.33;;;11.13;;
75135;SDS011;63707;52.212;9.540;2022-12-07T04:33:44;27.38;;;10.40;;
75135;SDS011;63707;52.212;9.540;2022-12-07T04:36:09;30.42;;;11.85;;
75135;SDS011;63707;52.212;9.540;2022-12-07T04:38:35;31.35;;;10.10;;
75135;SDS011;63707;52.212;9.540;2022-12-07T04:41:04;30.05;;;11.32;;
75135;SDS011;63707;52.212;9.540;2022-12-07T04:43:30;24.70;;;9.88;;
75135;SDS011;63707;52.212;9.540;2022-12-07T04:45:56;30.30;;;10.68;;
75135;SDS011;63707;52.212;9.540;2022-12-07T04:48:22;29.98;;;10.57;;
75135;SDS011;63707;52.212;9.540;2022-12-07T04:50:49;27.48;;;10.32;;
75135;SDS011;63707;52.212;9.540;2022-12-07T04:53:14;24.45;;;9.95;;
75135;SDS011;63707;52.212;9.540;2022-12-07T04:55:40;23.85;;;9.60;;
75135;SDS011;63707;52.212;9.540;2022-12-07T04:58:06;24.27;;;9.38;;
75135;SDS011;63707;52.212;9.540;2022-12-07T05:00:31;29.77;;;10.75;;
75135;SDS011;63707;52.212;9.540;2022-12-07T05:02:57;29.30;;;10.63;;
75135;SDS011;63707;52.212;9.540;2022-12-07T05:05:22;24.58;;;8.98;;
75135;SDS011;63707;52.212;9.540;2022-12-07T05:07:50;27.88;;;10.25;;
75135;SDS011;63707;52.212;9.540;2022-12-07T05:10:16;20.60;;;8.57;;
75135;SDS011;63707;52.212;9.540;2022-12-07T05:12:41;24.33;;;8.48;;
75135;SDS011;63707;52.212;9.540;2022-12-07T05:15:07;21.52;;;8.65;;
75135;SDS011;63707;52.212;9.540;2022-12-07T05:17:33;27.13;;;10.88;;
75135;SDS011;63707;52.212;9.540;2022-12-07T05:19:59;24.38;;;8.20;;
75135;SDS011;63707;52.212;9.540;2022-12-07T05:22:24;23.33;;;8.25;;
75135;SDS011;63707;52.212;9.540;2022-12-07T05:24:54;24.33;;;8.05;;
75135;SDS011;63707;52.212;9.540;2022-12-07T05:27:20;17.90;;;7.90;;
75135;SDS011;63707;52.212;9.540;2022-12-07T05:29:45;16.40;;;7.70;;
75135;SDS011;63707;52.212;9.540;2022-12-07T05:32:11;22.15;;;7.82;;
75135;SDS011;63707;52.212;9.540;2022-12-07T05:34:37;19.25;;;7.43;;
75135;SDS011;63707;52.212;9.540;2022-12-07T05:37:02;19.58;;;8.02;;
75135;SDS011;63707;52.212;9.540;2022-12-07T05:39:28;18.83;;;8.05;;
75135;SDS011;63707;52.212;9.540;2022-12-07T05:41:55;17.17;;;7.28;;
75135;SDS011;63707;52.212;9.540;2022-12-07T05:44:38;16.55;;;7.22;;
75135;SDS011;63707;52.212;9.540;2022-12-07T05:47:04;21.27;;;8.20;;
75135;SDS011;63707;52.212;9.540;2022-12-07T05:49:30;21.92;;;7.60;;
75135;SDS011;63707;52.212;9.540;2022-12-07T05:51:56;21.23;;;7.97;;
75135;SDS011;63707;52.212;9.540;2022-12-07T05:54:21;21.90;;;7.65;;
75135;SDS011;63707;52.212;9.540;2022-12-07T05:56:47;18.63;;;6.78;;
75135;SDS011;63707;52.212;9.540;2022-12-07T05:59:14;19.45;;;7.38;;
75135;SDS011;63707;52.212;9.540;2022-12-07T06:01:50;21.83;;;6.88;;
75135;SDS011;63707;52.212;9.540;2022-12-07T06:04:16;17.00;;;6.63;;
75135;SDS011;63707;52.212;9.540;2022-12-07T06:06:42;18.92;;;7.00;;
75135;SDS011;63707;52.212;9.540;2022-12-07T06:09:09;12.85;;;5.88;;
75135;SDS011;63707;52.212;9.540;2022-12-07T06:11:35;15.43;;;6.15;;
75135;SDS011;63707;52.212;9.540;2022-12-07T06:14:20;17.55;;;6.22;;
75135;SDS011;63707;52.212;9.540;2022-12-07T06:16:46;17.02;;;6.13;;
75135;SDS011;63707;52.212;9.540;2022-12-07T06:19:11;16.25;;;6.55;;
75135;SDS011;63707;52.212;9.540;2022-12-07T06:21:37;20.48;;;6.18;;
75135;SDS011;63707;52.212;9.540;2022-12-07T06:24:03;15.60;;;6.40;;
75135;SDS011;63707;52.212;9.540;2022-12-07T06:26:29;18.25;;;6.10;;
75135;SDS011;63707;52.212;9.540;2022-12-07T06:28:54;17.63;;;6.68;;
75135;SDS011;63707;52.212;9.540;2022-12-07T06:31:21;12.65;;;6.30;;
75135;SDS011;63707;52.212;9.540;2022-12-07T06:33:47;18.83;;;6.80;;
75135;SDS011;63707;52.212;9.540;2022-12-07T06:36:15;14.32;;;5.30;;
75135;SDS011;63707;52.212;9.540;2022-12-07T06:38:40;14.82;;;5.38;;
75135;SDS011;63707;52.212;9.540;2022-12-07T06:41:06;12.45;;;5.18;;
75135;SDS011;63707;52.212;9.540;2022-12-07T06:43:31;15.13;;;5.10;;
75135;SDS011;63707;52.212;9.540;2022-12-07T06:45:57;11.30;;;5.28;;
75135;SDS011;63707;52.212;9.540;2022-12-07T06:48:24;18.88;;;5.57;;
75135;SDS011;63707;52.212;9.540;2022-12-07T06:50:50;15.82;;;5.55;;
75135;SDS011;63707;52.212;9.540;2022-12-07T06:53:15;10.82;;;5.47;;
75135;SDS011;63707;52.212;9.540;2022-12-07T06:55:42;14.63;;;4.75;;
75135;SDS011;63707;52.212;9.540;2022-12-07T06:58:07;13.75;;;6.00;;
75135;SDS011;63707;52.212;9.540;2022-12-07T07:00:33;9.18;;;4.47;;
75135;SDS011;63707;52.212;9.540;2022-12-07T07:03:00;15.80;;;5.50;;
75135;SDS011;63707;52.212;9.540;2022-12-07T07:05:27;14.23;;;5.28;;
75135;SDS011;63707;52.212;9.540;2022-12-07T07:07:53;13.60;;;5.57;;
75135;SDS011;63707;52.212;9.540;2022-12-07T07:10:18;11.65;;;4.82;;
75135;SDS011;63707;52.212;9.540;2022-12-07T07:12:44;11.70;;;4.95;;
75135;SDS011;63707;52.212;9.540;2022-12-07T07:15:10;11.60;;;5.35;;
75135;SDS011;63707;52.212;9.540;2022-12-07T07:17:36;16.00;;;6.07;;
75135;SDS011;63707;52.212;9.540;2022-12-07T07:20:02;13.23;;;5.70;;
75135;SDS011;63707;52.212;9.540;2022-12-07T07:22:29;8.13;;;4.72;;
75135;SDS011;63707;52.212;9.540;2022-12-07T07:24:55;12.15;;;5.57;;
75135;SDS011;63707;52.212;9.540;2022-12-07T07:27:20;14.30;;;6.20;;
75135;SDS011;63707;52.212;9.540;2022-12-07T07:29:46;12.35;;;5.22;;
75135;SDS011;63707;52.212;9.540;2022-12-07T07:32:11;10.90;;;4.70;;
75135;SDS011;63707;52.212;9.540;2022-12-07T07:34:37;10.65;;;4.97;;
75135;SDS011;63707;52.212;9.540;2022-12-07T07:37:03;8.60;;;4.03;;
75135;SDS011;63707;52.212;9.540;2022-12-07T07:39:30;10.50;;;4.70;;
75135;SDS011;63707;52.212;9.540;2022-12-07T07:41:55;13.07;;;4.18;;
75135;SDS011;63707;52.212;9.540;2022-12-07T07:44:21;11.25;;;4.10;;
75135;SDS011;63707;52.212;9.540;2022-12-07T07:46:46;11.13;;;4.07;;
75135;SDS011;63707;52.212;9.540;2022-12-07T07:49:12;11.43;;;5.05;;
75135;SDS011;63707;52.212;9.540;2022-12-07T07:51:38;15.15;;;4.78;;
75135;SDS011;63707;52.212;9.540;2022-12-07T07:54:03;12.05;;;4.60;;
75135;SDS011;63707;52.212;9.540;2022-12-07T07:56:30;11.45;;;3.85;;
75135;SDS011;63707;52.212;9.540;2022-12-07T07:58:56;10.15;;;3.90;;
75135;SDS011;63707;52.212;9.540;2022-12-07T08:01:21;14.40;;;5.32;;
75135;SDS011;63707;52.212;9.540;2022-12-07T08:03:47;12.60;;;4.15;;
75135;SDS011;63707;52.212;9.540;2022-12-07T08:06:13;9.55;;;3.67;;
75135;SDS011;63707;52.212;9.540;2022-12-07T08:08:39;10.25;;;4.55;;
75135;SDS011;63707;52.212;9.540;2022-12-07T08:11:04;12.18;;;4.47;;
75135;SDS011;63707;52.212;9.540;2022-12-07T08:13:31;11.75;;;4.35;;
75135;SDS011;63707;52.212;9.540;2022-12-07T08:15:57;12.73;;;4.28;;
75135;SDS011;63707;52.212;9.540;2022-12-07T08:18:27;12.32;;;4.20;;
75135;SDS011;63707;52.212;9.540;2022-12-07T08:20:58;12.75;;;3.67;;
75135;SDS011;63707;52.212;9.540;2022-12-07T08:23:24;8.13;;;3.65;;
75135;SDS011;63707;52.212;9.540;2022-12-07T08:25:49;10.65;;;3.97;;
75135;SDS011;63707;52.212;9.540;2022-12-07T08:28:15;15.63;;;5.10;;
75135;SDS011;63707;52.212;9.540;2022-12-07T08:30:42;10.77;;;3.70;;
75135;SDS011;63707;52.212;9.540;2022-12-07T08:33:08;13.38;;;4.38;;
75135;SDS011;63707;52.212;9.540;2022-12-07T08:35:35;10.13;;;4.15;;
75135;SDS011;63707;52.212;9.540;2022-12-07T08:38:01;14.10;;;4.22;;
75135;SDS011;63707;52.212;9.540;2022-12-07T08:40:27;9.23;;;4.53;;
75135;SDS011;63707;52.212;9.540;2022-12-07T08:42:53;15.00;;;4.13;;
75135;SDS011;63707;52.212;9.540;2022-12-07T08:45:19;8.73;;;4.13;;
75135;SDS011;63707;52.212;9.540;2022-12-07T08:47:48;11.57;;;3.97;;
75135;SDS011;63707;52.212;9.540;2022-12-07T08:50:17;9.90;;;3.80;;
75135;SDS011;63707;52.212;9.540;2022-12-07T08:52:43;6.45;;;3.75;;
75135;SDS011;63707;52.212;9.540;2022-12-07T08:55:09;6.65;;;3.40;;
75135;SDS011;63707;52.212;9.540;2022-12-07T08:57:36;5.40;;;3.10;;
75135;SDS011;63707;52.212;9.540;2022-12-07T09:00:05;9.88;;;3.50;;
75135;SDS011;63707;52.212;9.540;2022-12-07T09:02:31;7.70;;;3.80;;
75135;SDS011;63707;52.212;9.540;2022-12-07T09:04:58;6.25;;;2.50;;
75135;SDS011;63707;52.212;9.540;2022-12-07T09:07:24;6.57;;;2.90;;
75135;SDS011;63707;52.212;9.540;2022-12-07T09:09:51;8.10;;;3.47;;
75135;SDS011;63707;52.212;9.540;2022-12-07T09:12:16;9.68;;;3.30;;
75135;SDS011;63707;52.212;9.540;2022-12-07T09:14:42;9.02;;;3.40;;
75135;SDS011;63707;52.212;9.540;2022-12-07T09:17:07;8.43;;;3.60;;
75135;SDS011;63707;52.212;9.540;2022-12-07T09:19:34;8.38;;;2.97;;
75135;SDS011;63707;52.212;9.540;2022-12-07T09:22:01;6.95;;;3.05;;
75135;SDS011;63707;52.212;9.540;2022-12-07T09:24:27;8.18;;;3.40;;
75135;SDS011;63707;52.212;9.540;2022-12-07T09:26:52;12.00;;;3.40;;
75135;SDS011;63707;52.212;9.540;2022-12-07T09:29:18;7.45;;;2.92;;
75135;SDS011;63707;52.212;9.540;2022-12-07T09:31:43;8.73;;;2.95;;
75135;SDS011;63707;52.212;9.540;2022-12-07T09:34:09;8.65;;;2.60;;
75135;SDS011;63707;52.212;9.540;2022-12-07T09:36:34;7.63;;;2.17;;
75135;SDS011;63707;52.212;9.540;2022-12-07T09:39:02;8.43;;;2.90;;
75135;SDS011;63707;52.212;9.540;2022-12-07T09:41:29;10.98;;;3.10;;
75135;SDS011;63707;52.212;9.540;2022-12-07T09:43:57;7.35;;;2.92;;
75135;SDS011;63707;52.212;9.540;2022-12-07T09:46:28;5.90;;;2.65;;
75135;SDS011;63707;52.212;9.540;2022-12-07T09:49:00;8.73;;;2.78;;
75135;SDS011;63707;52.212;9.540;2022-12-07T09:51:26;13.73;;;3.10;;
75135;SDS011;63707;52.212;9.540;2022-12-07T09:53:52;6.13;;;2.17;;
75135;SDS011;63707;52.212;9.540;2022-12-07T09:56:21;7.95;;;1.70;;
75135;SDS011;63707;52.212;9.540;2022-12-07T09:58:47;6.30;;;2.33;;
75135;SDS011;63707;52.212;9.540;2022-12-07T10:01:15;6.60;;;2.67;;
75135;SDS011;63707;52.212;9.540;2022-12-07T10:03:42;7.15;;;1.80;;
75135;SDS011;63707;52.212;9.540;2022-12-07T10:06:13;7.20;;;2.20;;
75135;SDS011;63707;52.212;9.540;2022-12-07T10:08:39;5.25;;;2.08;;
75135;SDS011;63707;52.212;9.540;2022-12-07T10:11:06;8.18;;;1.85;;
75135;SDS011;63707;52.212;9.540;2022-12-07T10:13:37;6.45;;;1.90;;
75135;SDS011;63707;52.212;9.540;2022-12-07T10:16:04;8.88;;;2.63;;
75135;SDS011;63707;52.212;9.540;2022-12-07T10:18:31;7.40;;;2.90;;
75135;SDS011;63707;52.212;9.540;2022-12-07T10:21:02;8.90;;;3.28;;
75135;SDS011;63707;52.212;9.540;2022-12-07T10:23:36;6.97;;;3.30;;
75135;SDS011;63707;52.212;9.540;2022-12-07T10:26:19;5.32;;;3.55;;
75135;SDS011;63707;52.212;9.540;2022-12-07T10:28:53;12.93;;;4.00;;
75135;SDS011;63707;52.212;9.540;2022-12-07T10:31:20;8.48;;;4.50;;
75135;SDS011;63707;52.212;9.540;2022-12-07T10:33:48;11.63;;;4.35;;
75135;SDS011;63707;52.212;9.540;2022-12-07T10:36:17;9.13;;;4.18;;
75135;SDS011;63707;52.212;9.540;2022-12-07T10:38:46;7.50;;;4.07;;
75135;SDS011;63707;52.212;9.540;2022-12-07T10:41:12;10.40;;;4.28;;
75135;SDS011;63707;52.212;9.540;2022-12-07T10:43:41;9.25;;;4.50;;
75135;SDS011;63707;52.212;9.540;2022-12-07T10:46:23;8.50;;;3.58;;
75135;SDS011;63707;52.212;9.540;2022-12-07T10:49:08;7.95;;;3.40;;
75135;SDS011;63707;52.212;9.540;2022-12-07T10:51:50;4.93;;;2.70;;
75135;SDS011;63707;52.212;9.540;2022-12-07T10:54:27;8.88;;;3.60;;
75135;SDS011;63707;52.212;9.540;2022-12-07T11:00:00;9.60;;;2.80;;
75135;SDS011;63707;52.212;9.540;2022-12-07T11:02:38;6.18;;;2.70;;
75135;SDS011;63707;52.212;9.540;2022-12-07T11:07:48;6.15;;;2.53;;
75135;SDS011;63707;52.212;9.540;2022-12-07T11:10:22;9.88;;;3.50;;
75135;SDS011;63707;52.212;9.540;2022-12-07T11:13:00;12.98;;;4.25;;
75135;SDS011;63707;52.212;9.540;2022-12-07T11:15:40;8.88;;;3.85;;
75135;SDS011;63707;52.212;9.540;2022-12-07T11:18:18;16.77;;;4.60;;
75135;SDS011;63707;52.212;9.540;2022-12-07T11:20:50;9.95;;;4.80;;
75135;SDS011;63707;52.212;9.540;2022-12-07T11:23:25;8.63;;;4.72;;
75135;SDS011;63707;52.212;9.540;2022-12-07T11:26:00;10.57;;;4.50;;
75135;SDS011;63707;52.212;9.540;2022-12-07T11:28:38;10.90;;;3.38;;
75135;SDS011;63707;52.212;9.540;2022-12-07T11:31:16;6.78;;;3.53;;
75135;SDS011;63707;52.212;9.540;2022-12-07T11:33:49;12.02;;;3.80;;
75135;SDS011;63707;52.212;9.540;2022-12-07T11:36:30;8.75;;;3.90;;
75135;SDS011;63707;52.212;9.540;2022-12-07T11:39:01;6.40;;;3.35;;
75135;SDS011;63707;52.212;9.540;2022-12-07T11:41:30;14.18;;;4.53;;
75135;SDS011;63707;52.212;9.540;2022-12-07T11:44:00;11.95;;;3.78;;
75135;SDS011;63707;52.212;9.540;2022-12-07T11:46:33;7.75;;;2.90;;
75135;SDS011;63707;52.212;9.540;2022-12-07T11:49:12;13.43;;;4.35;;
75135;SDS011;63707;52.212;9.540;2022-12-07T11:51:44;14.75;;;4.53;;
75135;SDS011;63707;52.212;9.540;2022-12-07T11:54:14;14.80;;;4.78;;
75135;SDS011;63707;52.212;9.540;2022-12-07T11:56:46;20.33;;;4.93;;
75135;SDS011;63707;52.212;9.540;2022-12-07T11:59:16;14.68;;;3.63;;
75135;SDS011;63707;52.212;9.540;2022-12-07T12:01:48;9.95;;;3.45;;
75135;SDS011;63707;52.212;9.540;2022-12-07T12:04:30;11.77;;;3.45;;
75135;SDS011;63707;52.212;9.540;2022-12-07T12:07:05;8.63;;;3.60;;
75135;SDS011;63707;52.212;9.540;2022-12-07T12:09:33;8.50;;;3.20;;
75135;SDS011;63707;52.212;9.540;2022-12-07T12:12:13;14.20;;;4.45;;
75135;SDS011;63707;52.212;9.540;2022-12-07T12:14:55;14.77;;;4.38;;
75135;SDS011;63707;52.212;9.540;2022-12-07T12:17:35;13.80;;;4.15;;
75135;SDS011;63707;52.212;9.540;2022-12-07T12:20:17;12.50;;;4.15;;
75135;SDS011;63707;52.212;9.540;2022-12-07T12:22:49;11.77;;;4.50;;
75135;SDS011;63707;52.212;9.540;2022-12-07T12:25:19;9.20;;;4.15;;
75135;SDS011;63707;52.212;9.540;2022-12-07T12:27:48;12.27;;;4.20;;
75135;SDS011;63707;52.212;9.540;2022-12-07T12:30:25;13.85;;;3.88;;
75135;SDS011;63707;52.212;9.540;2022-12-07T12:33:00;9.70;;;3.33;;
75135;SDS011;63707;52.212;9.540;2022-12-07T12:35:31;14.15;;;4.10;;
75135;SDS011;63707;52.212;9.540;2022-12-07T12:40:49;11.55;;;3.10;;
75135;SDS011;63707;52.212;9.540;2022-12-07T12:55:14;16.23;;;3.38;;
75135;SDS011;63707;52.212;9.540;2022-12-07T12:57:46;11.45;;;3.40;;
75135;SDS011;63707;52.212;9.540;2022-12-07T13:00:16;10.15;;;2.95;;
75135;SDS011;63707;52.212;9.540;2022-12-07T13:02:47;11.75;;;2.80;;
75135;SDS011;63707;52.212;9.540;2022-12-07T13:05:16;9.40;;;3.47;;
75135;SDS011;63707;52.212;9.540;2022-12-07T13:07:52;7.35;;;3.03;;
75135;SDS011;63707;52.212;9.540;2022-12-07T13:10:24;8.40;;;2.05;;
75135;SDS011;63707;52.212;9.540;2022-12-07T13:13:00;9.75;;;2.70;;
75135;SDS011;63707;52.212;9.540;2022-12-07T13:15:31;14.13;;;2.40;;
75135;SDS011;63707;52.212;9.540;2022-12-07T13:18:00;11.25;;;2.33;;
75135;SDS011;63707;52.212;9.540;2022-12-07T13:20:46;13.00;;;2.70;;
75135;SDS011;63707;52.212;9.540;2022-12-07T13:23:13;8.85;;;2.38;;
75135;SDS011;63707;52.212;9.540;2022-12-07T13:25:57;13.60;;;2.50;;
75135;SDS011;63707;52.212;9.540;2022-12-07T13:28:27;8.07;;;2.25;;
75135;SDS011;63707;52.212;9.540;2022-12-07T13:31:02;12.38;;;2.05;;
75135;SDS011;63707;52.212;9.540;2022-12-07T13:33:36;12.77;;;2.28;;
75135;SDS011;63707;52.212;9.540;2022-12-07T13:36:02;11.73;;;2.00;;
75135;SDS011;63707;52.212;9.540;2022-12-07T13:38:28;11.70;;;2.35;;
75135;SDS011;63707;52.212;9.540;2022-12-07T13:41:01;13.38;;;2.65;;
75135;SDS011;63707;52.212;9.540;2022-12-07T13:43:28;10.73;;;2.17;;
75135;SDS011;63707;52.212;9.540;2022-12-07T13:45:55;9.95;;;2.20;;
75135;SDS011;63707;52.212;9.540;2022-12-07T13:48:22;14.10;;;3.25;;
75135;SDS011;63707;52.212;9.540;2022-12-07T13:50:54;11.60;;;2.45;;
75135;SDS011;63707;52.212;9.540;2022-12-07T13:53:20;9.10;;;2.80;;
75135;SDS011;63707;52.212;9.540;2022-12-07T13:55:46;7.78;;;2.75;;
75135;SDS011;63707;52.212;9.540;2022-12-07T13:58:13;15.55;;;2.75;;
75135;SDS011;63707;52.212;9.540;2022-12-07T14:00:40;10.35;;;2.30;;
75135;SDS011;63707;52.212;9.540;2022-12-07T14:03:20;10.50;;;2.30;;
75135;SDS011;63707;52.212;9.540;2022-12-07T14:06:02;8.73;;;2.60;;
75135;SDS011;63707;52.212;9.540;2022-12-07T14:08:38;12.90;;;2.70;;
75135;SDS011;63707;52.212;9.540;2022-12-07T14:11:04;11.40;;;3.10;;
75135;SDS011;63707;52.212;9.540;2022-12-07T14:13:32;9.80;;;3.17;;
75135;SDS011;63707;52.212;9.540;2022-12-07T14:15:59;12.68;;;3.47;;
75135;SDS011;63707;52.212;9.540;2022-12-07T14:18:26;16.70;;;4.38;;
75135;SDS011;63707;52.212;9.540;2022-12-07T14:21:02;12.52;;;3.53;;
75135;SDS011;63707;52.212;9.540;2022-12-07T14:23:28;17.55;;;3.70;;
75135;SDS011;63707;52.212;9.540;2022-12-07T14:25:54;10.93;;;3.13;;
75135;SDS011;63707;52.212;9.540;2022-12-07T14:28:30;8.48;;;3.10;;
75135;SDS011;63707;52.212;9.540;2022-12-07T14:30:59;7.50;;;2.88;;
75135;SDS011;63707;52.212;9.540;2022-12-07T14:33:25;14.32;;;3.28;;
75135;SDS011;63707;52.212;9.540;2022-12-07T14:35:51;13.82;;;2.58;;
75135;SDS011;63707;52.212;9.540;2022-12-07T14:38:20;12.15;;;2.70;;
75135;SDS011;63707;52.212;9.540;2022-12-07T14:40:46;9.27;;;2.80;;
75135;SDS011;63707;52.212;9.540;2022-12-07T14:43:13;13.25;;;2.97;;
75135;SDS011;63707;52.212;9.540;2022-12-07T14:45:42;13.07;;;2.55;;
75135;SDS011;63707;52.212;9.540;2022-12-07T14:48:09;15.57;;;2.63;;
75135;SDS011;63707;52.212;9.540;2022-12-07T14:50:37;12.45;;;2.58;;
75135;SDS011;63707;52.212;9.540;2022-12-07T14:53:06;6.82;;;1.95;;
75135;SDS011;63707;52.212;9.540;2022-12-07T14:55:37;5.72;;;2.40;;
75135;SDS011;63707;52.212;9.540;2022-12-07T14:58:03;8.20;;;2.10;;
75135;SDS011;63707;52.212;9.540;2022-12-07T15:00:28;11.02;;;2.42;;
75135;SDS011;63707;52.212;9.540;2022-12-07T15:02:56;9.75;;;1.83;;
75135;SDS011;63707;52.212;9.540;2022-12-07T15:05:22;13.60;;;1.98;;
75135;SDS011;63707;52.212;9.540;2022-12-07T15:07:48;10.35;;;2.25;;
75135;SDS011;63707;52.212;9.540;2022-12-07T15:10:15;5.10;;;1.77;;